sensor_id;sensor_type;location;lat;lon;timestamp;P1;durP1;ratioP1;P2;durP2;ratioP2
11957;SDS011;6039;52.576;13.348;2023-03-23T00:03:06;5.00;;;1.87;;
11957;SDS011;6039;52.576;13.348;2023-03-23T00:08:13;2.10;;;1.63;;
11957;SDS011;6039;52.576;13.348;2023-03-23T00:13:17;3.83;;;1.63;;
11957;SDS011;6039;52.576;13.348;2023-03-23T00:18:21;2.93;;;1.80;;
11957;SDS011;6039;52.576;13.348;2023-03-23T00:23:28;3.27;;;1.63;;
11957;SDS011;6039;52.576;13.348;2023-03-23T00:28:32;2.40;;;1.60;;
11957;SDS011;6039;52.576;13.348;2023-03-23T00:33:36;2.00;;;1.67;;
11957;SDS011;6039;52.576;13.348;2023-03-23T00:38:44;3.60;;;1.90;;
11957;SDS011;6039;52.576;13.348;2023-03-23T00:43:48;2.67;;;1.80;;
11957;SDS011;6039;52.576;13.348;2023-03-23T00:48:52;2.77;;;2.00;;
11957;SDS011;6039;52.576;13.348;2023-03-23T00:53:59;2.80;;;1.83;;
11957;SDS011;6039;52.576;13.348;2023-03-23T00:59:03;2.50;;;1.80;;
11957;SDS011;6039;52.576;13.348;2023-03-23T01:04:07;2.00;;;1.67;;
11957;SDS011;6039;52.576;13.348;2023-03-23T01:09:14;3.73;;;1.90;;
11957;SDS011;6039;52.576;13.348;2023-03-23T01:14:21;4.60;;;1.80;;
11957;SDS011;6039;52.576;13.348;2023-03-23T01:19:25;2.33;;;1.80;;
11957;SDS011;6039;52.576;13.348;2023-03-23T01:24:33;2.50;;;1.77;;
11957;SDS011;6039;52.576;13.348;2023-03-23T01:29:37;2.00;;;1.77;;
11957;SDS011;6039;52.576;13.348;2023-03-23T01:34:41;2.40;;;1.80;;
11957;SDS011;6039;52.576;13.348;2023-03-23T01:39:47;1.97;;;1.77;;
11957;SDS011;6039;52.576;13.348;2023-03-23T01:50:29;2.67;;;2.10;;
11957;SDS011;6039;52.576;13.348;2023-03-23T01:55:39;2.37;;;1.67;;
11957;SDS011;6039;52.576;13.348;2023-03-23T02:00:48;4.10;;;1.93;;
11957;SDS011;6039;52.576;13.348;2023-03-23T02:05:53;2.40;;;1.80;;
11957;SDS011;6039;52.576;13.348;2023-03-23T02:11:01;5.03;;;1.90;;
11957;SDS011;6039;52.576;13.348;2023-03-23T02:16:13;2.33;;;1.87;;
11957;SDS011;6039;52.576;13.348;2023-03-23T02:21:31;2.40;;;2.00;;
11957;SDS011;6039;52.576;13.348;2023-03-23T02:26:58;2.83;;;1.87;;
11957;SDS011;6039;52.576;13.348;2023-03-23T02:32:08;2.17;;;1.90;;
11957;SDS011;6039;52.576;13.348;2023-03-23T02:37:19;2.07;;;1.77;;
11957;SDS011;6039;52.576;13.348;2023-03-23T02:42:26;1.97;;;1.70;;
11957;SDS011;6039;52.576;13.348;2023-03-23T02:47:32;2.87;;;1.53;;
11957;SDS011;6039;52.576;13.348;2023-03-23T02:52:41;3.50;;;2.00;;
11957;SDS011;6039;52.576;13.348;2023-03-23T02:57:46;3.57;;;1.83;;
11957;SDS011;6039;52.576;13.348;2023-03-23T03:02:51;2.73;;;1.90;;
11957;SDS011;6039;52.576;13.348;2023-03-23T03:08:01;2.23;;;1.63;;
11957;SDS011;6039;52.576;13.348;2023-03-23T03:13:20;3.30;;;2.13;;
11957;SDS011;6039;52.576;13.348;2023-03-23T03:18:29;4.07;;;2.00;;
11957;SDS011;6039;52.576;13.348;2023-03-23T03:23:38;2.43;;;1.80;;
11957;SDS011;6039;52.576;13.348;2023-03-23T03:28:43;2.57;;;2.00;;
11957;SDS011;6039;52.576;13.348;2023-03-23T03:33:48;2.70;;;2.10;;
11957;SDS011;6039;52.576;13.348;2023-03-23T03:38:56;2.73;;;1.93;;
11957;SDS011;6039;52.576;13.348;2023-03-23T03:44:07;2.37;;;2.00;;
11957;SDS011;6039;52.576;13.348;2023-03-23T03:49:12;2.57;;;2.00;;
11957;SDS011;6039;52.576;13.348;2023-03-23T03:54:18;2.17;;;1.70;;
11957;SDS011;6039;52.576;13.348;2023-03-23T03:59:23;3.03;;;2.00;;
11957;SDS011;6039;52.576;13.348;2023-03-23T04:04:30;2.20;;;1.87;;
11957;SDS011;6039;52.576;13.348;2023-03-23T04:09:37;4.73;;;2.13;;
11957;SDS011;6039;52.576;13.348;2023-03-23T04:14:41;4.90;;;2.03;;
11957;SDS011;6039;52.576;13.348;2023-03-23T04:19:45;3.47;;;1.80;;
11957;SDS011;6039;52.576;13.348;2023-03-23T04:24:52;3.27;;;2.17;;
11957;SDS011;6039;52.576;13.348;2023-03-23T04:29:58;2.50;;;1.83;;
11957;SDS011;6039;52.576;13.348;2023-03-23T04:35:03;3.67;;;2.00;;
11957;SDS011;6039;52.576;13.348;2023-03-23T04:40:10;3.10;;;2.13;;
11957;SDS011;6039;52.576;13.348;2023-03-23T04:45:16;3.87;;;2.30;;
11957;SDS011;6039;52.576;13.348;2023-03-23T04:50:23;2.37;;;1.90;;
11957;SDS011;6039;52.576;13.348;2023-03-23T04:55:33;3.53;;;2.50;;
11957;SDS011;6039;52.576;13.348;2023-03-23T05:00:38;2.83;;;2.10;;
11957;SDS011;6039;52.576;13.348;2023-03-23T05:05:43;2.93;;;2.27;;
11957;SDS011;6039;52.576;13.348;2023-03-23T05:10:55;2.50;;;1.97;;
11957;SDS011;6039;52.576;13.348;2023-03-23T05:16:02;3.03;;;2.23;;
11957;SDS011;6039;52.576;13.348;2023-03-23T05:21:07;3.33;;;1.87;;
11957;SDS011;6039;52.576;13.348;2023-03-23T05:26:13;2.33;;;2.00;;
11957;SDS011;6039;52.576;13.348;2023-03-23T05:31:17;2.67;;;2.03;;
11957;SDS011;6039;52.576;13.348;2023-03-23T05:36:21;2.60;;;1.83;;
11957;SDS011;6039;52.576;13.348;2023-03-23T05:41:28;2.67;;;2.10;;
11957;SDS011;6039;52.576;13.348;2023-03-23T05:46:33;2.27;;;2.07;;
11957;SDS011;6039;52.576;13.348;2023-03-23T05:51:37;3.17;;;1.93;;
11957;SDS011;6039;52.576;13.348;2023-03-23T05:56:44;3.70;;;2.10;;
11957;SDS011;6039;52.576;13.348;2023-03-23T06:01:49;3.10;;;1.50;;
11957;SDS011;6039;52.576;13.348;2023-03-23T06:06:55;2.90;;;2.00;;
11957;SDS011;6039;52.576;13.348;2023-03-23T06:12:02;2.67;;;1.77;;
11957;SDS011;6039;52.576;13.348;2023-03-23T06:17:07;3.10;;;1.80;;
11957;SDS011;6039;52.576;13.348;2023-03-23T06:22:11;1.93;;;1.70;;
11957;SDS011;6039;52.576;13.348;2023-03-23T06:27:19;1.83;;;1.63;;
11957;SDS011;6039;52.576;13.348;2023-03-23T06:32:23;2.50;;;1.70;;
11957;SDS011;6039;52.576;13.348;2023-03-23T06:37:27;2.23;;;1.40;;
11957;SDS011;6039;52.576;13.348;2023-03-23T06:42:34;2.73;;;1.90;;
11957;SDS011;6039;52.576;13.348;2023-03-23T06:47:38;1.50;;;1.27;;
11957;SDS011;6039;52.576;13.348;2023-03-23T06:52:44;2.60;;;1.63;;
11957;SDS011;6039;52.576;13.348;2023-03-23T06:57:51;2.77;;;1.50;;
11957;SDS011;6039;52.576;13.348;2023-03-23T07:02:55;1.90;;;1.33;;
11957;SDS011;6039;52.576;13.348;2023-03-23T07:07:59;2.23;;;1.53;;
11957;SDS011;6039;52.576;13.348;2023-03-23T07:13:06;3.03;;;1.80;;
11957;SDS011;6039;52.576;13.348;2023-03-23T07:18:10;2.77;;;1.77;;
11957;SDS011;6039;52.576;13.348;2023-03-23T07:23:14;2.07;;;1.57;;
11957;SDS011;6039;52.576;13.348;2023-03-23T07:28:21;4.13;;;1.80;;
11957;SDS011;6039;52.576;13.348;2023-03-23T07:33:26;2.67;;;1.67;;
11957;SDS011;6039;52.576;13.348;2023-03-23T07:38:30;2.93;;;1.40;;
11957;SDS011;6039;52.576;13.348;2023-03-23T07:43:37;3.83;;;1.60;;
11957;SDS011;6039;52.576;13.348;2023-03-23T07:48:41;2.70;;;1.70;;
11957;SDS011;6039;52.576;13.348;2023-03-23T07:53:46;2.23;;;1.73;;
11957;SDS011;6039;52.576;13.348;2023-03-23T07:58:54;2.30;;;1.80;;
11957;SDS011;6039;52.576;13.348;2023-03-23T08:03:58;2.87;;;1.80;;
11957;SDS011;6039;52.576;13.348;2023-03-23T08:09:02;4.13;;;2.00;;
11957;SDS011;6039;52.576;13.348;2023-03-23T08:14:11;2.77;;;1.60;;
11957;SDS011;6039;52.576;13.348;2023-03-23T08:19:15;3.90;;;2.00;;
11957;SDS011;6039;52.576;13.348;2023-03-23T08:24:19;1.97;;;1.70;;
11957;SDS011;6039;52.576;13.348;2023-03-23T08:29:26;3.50;;;2.00;;
11957;SDS011;6039;52.576;13.348;2023-03-23T08:34:30;1.97;;;1.77;;
11957;SDS011;6039;52.576;13.348;2023-03-23T08:39:34;2.30;;;1.70;;
11957;SDS011;6039;52.576;13.348;2023-03-23T08:44:41;4.10;;;2.13;;
11957;SDS011;6039;52.576;13.348;2023-03-23T08:49:45;5.07;;;2.03;;
11957;SDS011;6039;52.576;13.348;2023-03-23T08:54:52;2.33;;;1.70;;
11957;SDS011;6039;52.576;13.348;2023-03-23T08:59:59;2.87;;;1.53;;
11957;SDS011;6039;52.576;13.348;2023-03-23T09:05:13;2.57;;;1.70;;
11957;SDS011;6039;52.576;13.348;2023-03-23T09:10:17;1.80;;;1.40;;
11957;SDS011;6039;52.576;13.348;2023-03-23T09:15:25;2.70;;;1.70;;
11957;SDS011;6039;52.576;13.348;2023-03-23T09:20:29;1.73;;;1.40;;
11957;SDS011;6039;52.576;13.348;2023-03-23T09:25:34;2.43;;;1.57;;
11957;SDS011;6039;52.576;13.348;2023-03-23T09:30:40;1.93;;;1.40;;
11957;SDS011;6039;52.576;13.348;2023-03-23T09:35:45;5.10;;;1.57;;
11957;SDS011;6039;52.576;13.348;2023-03-23T09:40:50;1.90;;;1.50;;
11957;SDS011;6039;52.576;13.348;2023-03-23T09:46:02;1.80;;;1.53;;
11957;SDS011;6039;52.576;13.348;2023-03-23T09:51:20;2.33;;;1.50;;
11957;SDS011;6039;52.576;13.348;2023-03-23T09:56:45;1.47;;;1.30;;
11957;SDS011;6039;52.576;13.348;2023-03-23T10:01:53;1.27;;;1.10;;
11957;SDS011;6039;52.576;13.348;2023-03-23T10:07:12;1.60;;;1.40;;
11957;SDS011;6039;52.576;13.348;2023-03-23T10:12:20;2.53;;;1.37;;
11957;SDS011;6039;52.576;13.348;2023-03-23T10:17:31;1.70;;;1.20;;
11957;SDS011;6039;52.576;13.348;2023-03-23T10:22:39;1.73;;;1.23;;
11957;SDS011;6039;52.576;13.348;2023-03-23T10:27:47;2.43;;;1.03;;
11957;SDS011;6039;52.576;13.348;2023-03-23T10:33:00;2.00;;;1.33;;
11957;SDS011;6039;52.576;13.348;2023-03-23T10:38:06;2.30;;;1.60;;
11957;SDS011;6039;52.576;13.348;2023-03-23T10:43:15;1.80;;;1.20;;
11957;SDS011;6039;52.576;13.348;2023-03-23T10:48:24;1.53;;;1.10;;
11957;SDS011;6039;52.576;13.348;2023-03-23T10:53:31;2.90;;;1.50;;
11957;SDS011;6039;52.576;13.348;2023-03-23T10:58:37;3.50;;;1.50;;
11957;SDS011;6039;52.576;13.348;2023-03-23T11:03:44;1.63;;;1.40;;
11957;SDS011;6039;52.576;13.348;2023-03-23T11:08:51;1.87;;;1.40;;
11957;SDS011;6039;52.576;13.348;2023-03-23T11:13:58;1.60;;;1.20;;
11957;SDS011;6039;52.576;13.348;2023-03-23T11:19:15;1.53;;;1.07;;
11957;SDS011;6039;52.576;13.348;2023-03-23T11:24:24;1.70;;;1.30;;
11957;SDS011;6039;52.576;13.348;2023-03-23T11:29:29;4.23;;;1.10;;
11957;SDS011;6039;52.576;13.348;2023-03-23T11:34:39;1.17;;;1.00;;
11957;SDS011;6039;52.576;13.348;2023-03-23T11:39:48;2.20;;;1.37;;
11957;SDS011;6039;52.576;13.348;2023-03-23T11:45:05;1.97;;;1.30;;
11957;SDS011;6039;52.576;13.348;2023-03-23T11:50:22;1.83;;;1.10;;
11957;SDS011;6039;52.576;13.348;2023-03-23T11:55:30;3.70;;;1.47;;
11957;SDS011;6039;52.576;13.348;2023-03-23T12:00:37;3.30;;;1.50;;
11957;SDS011;6039;52.576;13.348;2023-03-23T12:05:49;2.57;;;1.40;;
11957;SDS011;6039;52.576;13.348;2023-03-23T12:10:57;1.80;;;1.20;;
11957;SDS011;6039;52.576;13.348;2023-03-23T12:16:08;2.50;;;1.53;;
11957;SDS011;6039;52.576;13.348;2023-03-23T12:21:21;2.10;;;1.27;;
11957;SDS011;6039;52.576;13.348;2023-03-23T12:26:30;1.70;;;1.20;;
11957;SDS011;6039;52.576;13.348;2023-03-23T12:31:39;2.27;;;1.33;;
11957;SDS011;6039;52.576;13.348;2023-03-23T12:36:53;1.60;;;1.20;;
11957;SDS011;6039;52.576;13.348;2023-03-23T12:42:04;1.70;;;1.23;;
11957;SDS011;6039;52.576;13.348;2023-03-23T12:47:15;1.90;;;1.40;;
11957;SDS011;6039;52.576;13.348;2023-03-23T12:52:28;1.57;;;1.30;;
11957;SDS011;6039;52.576;13.348;2023-03-23T12:57:36;2.23;;;1.43;;
11957;SDS011;6039;52.576;13.348;2023-03-23T13:02:43;2.83;;;1.40;;
11957;SDS011;6039;52.576;13.348;2023-03-23T13:07:59;2.63;;;1.40;;
11957;SDS011;6039;52.576;13.348;2023-03-23T13:13:07;2.10;;;1.40;;
11957;SDS011;6039;52.576;13.348;2023-03-23T13:18:17;1.70;;;1.20;;
11957;SDS011;6039;52.576;13.348;2023-03-23T13:23:41;2.63;;;1.40;;
11957;SDS011;6039;52.576;13.348;2023-03-23T13:28:50;1.80;;;1.10;;
11957;SDS011;6039;52.576;13.348;2023-03-23T13:33:58;1.20;;;1.03;;
11957;SDS011;6039;52.576;13.348;2023-03-23T13:39:16;1.27;;;1.10;;
11957;SDS011;6039;52.576;13.348;2023-03-23T13:44:25;1.73;;;1.10;;
11957;SDS011;6039;52.576;13.348;2023-03-23T13:49:31;2.17;;;1.10;;
11957;SDS011;6039;52.576;13.348;2023-03-23T13:54:42;1.80;;;1.10;;
11957;SDS011;6039;52.576;13.348;2023-03-23T13:59:47;2.53;;;1.10;;
11957;SDS011;6039;52.576;13.348;2023-03-23T14:04:52;2.00;;;1.10;;
11957;SDS011;6039;52.576;13.348;2023-03-23T14:10:04;1.90;;;1.17;;
11957;SDS011;6039;52.576;13.348;2023-03-23T14:15:11;2.40;;;1.43;;
11957;SDS011;6039;52.576;13.348;2023-03-23T14:20:20;2.03;;;1.17;;
11957;SDS011;6039;52.576;13.348;2023-03-23T14:25:30;1.57;;;1.20;;
11957;SDS011;6039;52.576;13.348;2023-03-23T14:30:35;2.53;;;1.47;;
11957;SDS011;6039;52.576;13.348;2023-03-23T14:35:40;1.73;;;1.10;;
11957;SDS011;6039;52.576;13.348;2023-03-23T14:40:48;1.70;;;1.10;;
11957;SDS011;6039;52.576;13.348;2023-03-23T14:45:54;1.83;;;1.00;;
11957;SDS011;6039;52.576;13.348;2023-03-23T14:51:01;1.20;;;0.97;;
11957;SDS011;6039;52.576;13.348;2023-03-23T14:56:12;1.10;;;0.90;;
11957;SDS011;6039;52.576;13.348;2023-03-23T15:01:17;2.57;;;1.00;;
11957;SDS011;6039;52.576;13.348;2023-03-23T15:06:23;3.60;;;1.53;;
11957;SDS011;6039;52.576;13.348;2023-03-23T15:11:32;1.93;;;1.20;;
11957;SDS011;6039;52.576;13.348;2023-03-23T15:16:39;1.37;;;1.10;;
11957;SDS011;6039;52.576;13.348;2023-03-23T15:21:48;1.63;;;1.10;;
11957;SDS011;6039;52.576;13.348;2023-03-23T15:27:02;2.70;;;1.20;;
11957;SDS011;6039;52.576;13.348;2023-03-23T15:32:19;3.13;;;1.83;;
11957;SDS011;6039;52.576;13.348;2023-03-23T15:37:25;1.70;;;1.20;;
11957;SDS011;6039;52.576;13.348;2023-03-23T15:42:33;1.60;;;1.10;;
11957;SDS011;6039;52.576;13.348;2023-03-23T15:47:43;1.27;;;1.10;;
11957;SDS011;6039;52.576;13.348;2023-03-23T15:52:48;1.83;;;1.40;;
11957;SDS011;6039;52.576;13.348;2023-03-23T15:57:56;2.53;;;1.33;;
11957;SDS011;6039;52.576;13.348;2023-03-23T16:03:01;2.33;;;1.27;;
11957;SDS011;6039;52.576;13.348;2023-03-23T16:08:08;1.93;;;1.30;;
11957;SDS011;6039;52.576;13.348;2023-03-23T16:13:18;1.53;;;1.10;;
11957;SDS011;6039;52.576;13.348;2023-03-23T16:18:22;1.97;;;1.10;;
11957;SDS011;6039;52.576;13.348;2023-03-23T16:23:26;2.50;;;1.30;;
11957;SDS011;6039;52.576;13.348;2023-03-23T16:28:33;2.47;;;1.40;;
11957;SDS011;6039;52.576;13.348;2023-03-23T16:33:37;1.50;;;1.10;;
11957;SDS011;6039;52.576;13.348;2023-03-23T16:38:41;3.37;;;1.50;;
11957;SDS011;6039;52.576;13.348;2023-03-23T16:43:47;1.60;;;1.10;;
11957;SDS011;6039;52.576;13.348;2023-03-23T16:48:51;2.63;;;1.17;;
11957;SDS011;6039;52.576;13.348;2023-03-23T16:53:55;1.97;;;1.20;;
11957;SDS011;6039;52.576;13.348;2023-03-23T16:59:02;2.53;;;1.10;;
11957;SDS011;6039;52.576;13.348;2023-03-23T17:04:06;2.63;;;1.40;;
11957;SDS011;6039;52.576;13.348;2023-03-23T17:09:10;2.67;;;1.00;;
11957;SDS011;6039;52.576;13.348;2023-03-23T17:14:17;2.77;;;1.13;;
11957;SDS011;6039;52.576;13.348;2023-03-23T17:19:21;1.23;;;0.97;;
11957;SDS011;6039;52.576;13.348;2023-03-23T17:24:25;1.70;;;1.30;;
11957;SDS011;6039;52.576;13.348;2023-03-23T17:29:32;2.27;;;1.30;;
11957;SDS011;6039;52.576;13.348;2023-03-23T17:34:36;1.90;;;1.23;;
11957;SDS011;6039;52.576;13.348;2023-03-23T17:39:40;2.50;;;1.27;;
11957;SDS011;6039;52.576;13.348;2023-03-23T17:44:47;1.67;;;1.37;;
11957;SDS011;6039;52.576;13.348;2023-03-23T17:49:51;2.43;;;1.07;;
11957;SDS011;6039;52.576;13.348;2023-03-23T17:54:56;1.73;;;1.03;;
11957;SDS011;6039;52.576;13.348;2023-03-23T18:00:02;2.40;;;1.20;;
11957;SDS011;6039;52.576;13.348;2023-03-23T18:05:09;3.47;;;1.10;;
11957;SDS011;6039;52.576;13.348;2023-03-23T18:10:13;1.40;;;1.10;;
11957;SDS011;6039;52.576;13.348;2023-03-23T18:15:20;2.80;;;1.17;;
11957;SDS011;6039;52.576;13.348;2023-03-23T18:20:25;1.50;;;1.20;;
11957;SDS011;6039;52.576;13.348;2023-03-23T18:25:29;2.50;;;1.60;;
11957;SDS011;6039;52.576;13.348;2023-03-23T18:30:36;1.53;;;1.30;;
11957;SDS011;6039;52.576;13.348;2023-03-23T18:35:40;1.77;;;1.30;;
11957;SDS011;6039;52.576;13.348;2023-03-23T18:40:45;2.77;;;1.77;;
11957;SDS011;6039;52.576;13.348;2023-03-23T18:45:52;2.43;;;1.40;;
11957;SDS011;6039;52.576;13.348;2023-03-23T18:50:59;2.43;;;1.60;;
11957;SDS011;6039;52.576;13.348;2023-03-23T18:56:04;3.20;;;1.90;;
11957;SDS011;6039;52.576;13.348;2023-03-23T19:01:13;2.50;;;1.47;;
11957;SDS011;6039;52.576;13.348;2023-03-23T19:06:19;2.13;;;1.57;;
11957;SDS011;6039;52.576;13.348;2023-03-23T19:11:24;4.10;;;2.13;;
11957;SDS011;6039;52.576;13.348;2023-03-23T19:16:31;2.97;;;1.67;;
11957;SDS011;6039;52.576;13.348;2023-03-23T19:21:37;2.87;;;1.83;;
11957;SDS011;6039;52.576;13.348;2023-03-23T19:26:43;3.87;;;1.63;;
11957;SDS011;6039;52.576;13.348;2023-03-23T19:31:50;4.40;;;2.17;;
11957;SDS011;6039;52.576;13.348;2023-03-23T19:36:55;2.33;;;1.73;;
11957;SDS011;6039;52.576;13.348;2023-03-23T19:41:59;3.57;;;1.80;;
11957;SDS011;6039;52.576;13.348;2023-03-23T19:47:05;2.83;;;1.83;;
11957;SDS011;6039;52.576;13.348;2023-03-23T19:52:09;2.00;;;1.23;;
11957;SDS011;6039;52.576;13.348;2023-03-23T19:57:13;1.90;;;1.60;;
11957;SDS011;6039;52.576;13.348;2023-03-23T20:02:20;2.40;;;1.50;;
11957;SDS011;6039;52.576;13.348;2023-03-23T20:07:24;5.57;;;1.57;;
11957;SDS011;6039;52.576;13.348;2023-03-23T20:12:28;3.77;;;1.77;;
11957;SDS011;6039;52.576;13.348;2023-03-23T20:17:34;2.30;;;1.67;;
11957;SDS011;6039;52.576;13.348;2023-03-23T20:22:39;2.23;;;1.60;;
11957;SDS011;6039;52.576;13.348;2023-03-23T20:27:43;3.73;;;1.30;;
11957;SDS011;6039;52.576;13.348;2023-03-23T20:32:49;2.50;;;1.73;;
11957;SDS011;6039;52.576;13.348;2023-03-23T20:37:57;2.67;;;1.80;;
11957;SDS011;6039;52.576;13.348;2023-03-23T20:43:01;3.83;;;1.90;;
11957;SDS011;6039;52.576;13.348;2023-03-23T20:48:07;2.80;;;1.70;;
11957;SDS011;6039;52.576;13.348;2023-03-23T20:53:11;3.60;;;2.03;;
11957;SDS011;6039;52.576;13.348;2023-03-23T20:58:16;3.90;;;2.10;;
11957;SDS011;6039;52.576;13.348;2023-03-23T21:03:22;2.73;;;1.90;;
11957;SDS011;6039;52.576;13.348;2023-03-23T21:08:27;2.97;;;2.10;;
11957;SDS011;6039;52.576;13.348;2023-03-23T21:13:32;3.03;;;2.17;;
11957;SDS011;6039;52.576;13.348;2023-03-23T21:18:38;3.73;;;2.47;;
11957;SDS011;6039;52.576;13.348;2023-03-23T21:23:43;5.10;;;2.50;;
11957;SDS011;6039;52.576;13.348;2023-03-23T21:28:51;4.53;;;2.60;;
11957;SDS011;6039;52.576;13.348;2023-03-23T21:34:01;3.60;;;2.50;;
11957;SDS011;6039;52.576;13.348;2023-03-23T21:39:05;5.80;;;3.03;;
11957;SDS011;6039;52.576;13.348;2023-03-23T21:44:09;4.90;;;3.37;;
11957;SDS011;6039;52.576;13.348;2023-03-23T21:49:16;3.87;;;3.17;;
11957;SDS011;6039;52.576;13.348;2023-03-23T21:54:20;5.13;;;3.13;;
11957;SDS011;6039;52.576;13.348;2023-03-23T21:59:29;6.30;;;3.40;;
11957;SDS011;6039;52.576;13.348;2023-03-23T22:04:35;5.30;;;3.13;;
11957;SDS011;6039;52.576;13.348;2023-03-23T22:09:40;5.23;;;3.00;;
11957;SDS011;6039;52.576;13.348;2023-03-23T22:14:44;6.20;;;2.93;;
11957;SDS011;6039;52.576;13.348;2023-03-23T22:19:51;4.43;;;3.33;;
11957;SDS011;6039;52.576;13.348;2023-03-23T22:24:55;5.23;;;3.30;;
11957;SDS011;6039;52.576;13.348;2023-03-23T22:29:59;4.37;;;2.80;;
11957;SDS011;6039;52.576;13.348;2023-03-23T22:35:06;4.00;;;2.47;;
11957;SDS011;6039;52.576;13.348;2023-03-23T22:40:11;5.23;;;3.00;;
11957;SDS011;6039;52.576;13.348;2023-03-23T22:45:15;7.57;;;2.87;;
11957;SDS011;6039;52.576;13.348;2023-03-23T22:50:22;6.33;;;2.90;;
11957;SDS011;6039;52.576;13.348;2023-03-23T22:55:26;5.27;;;3.07;;
11957;SDS011;6039;52.576;13.348;2023-03-23T23:00:30;3.53;;;2.70;;
11957;SDS011;6039;52.576;13.348;2023-03-23T23:05:39;4.53;;;2.43;;
11957;SDS011;6039;52.576;13.348;2023-03-23T23:10:44;3.73;;;2.93;;
11957;SDS011;6039;52.576;13.348;2023-03-23T23:15:51;4.60;;;2.67;;
11957;SDS011;6039;52.576;13.348;2023-03-23T23:20:59;6.50;;;3.00;;
11957;SDS011;6039;52.576;13.348;2023-03-23T23:26:07;4.20;;;2.50;;
11957;SDS011;6039;52.576;13.348;2023-03-23T23:31:15;2.93;;;2.40;;
11957;SDS011;6039;52.576;13.348;2023-03-23T23:36:27;4.60;;;3.10;;
11957;SDS011;6039;52.576;13.348;2023-03-23T23:41:32;5.70;;;2.73;;
11957;SDS011;6039;52.576;13.348;2023-03-23T23:46:36;6.20;;;2.77;;
11957;SDS011;6039;52.576;13.348;2023-03-23T23:51:43;3.90;;;2.60;;
11957;SDS011;6039;52.576;13.348;2023-03-23T23:56:47;6.03;;;2.73;;
